createdAt,value
2023-04-25T00:02:40.610Z,46.68
2023-04-25T00:07:33.992Z,46.21
2023-04-25T00:12:29.619Z,46.62
2023-04-25T00:17:23.612Z,46.71
2023-04-25T00:22:16.978Z,46.32
2023-04-25T00:27:10.170Z,46.56
2023-04-25T00:32:04.261Z,46.40
2023-04-25T00:36:58.039Z,46.44
2023-04-25T00:41:55.034Z,47.25
2023-04-25T00:46:50.992Z,47.45
2023-04-25T00:51:46.111Z,47.62
2023-04-25T00:56:39.208Z,47.64
2023-04-25T01:01:33.153Z,47.62
2023-04-25T01:06:25.834Z,48.01
2023-04-25T01:11:18.768Z,47.78
2023-04-25T01:16:12.743Z,47.73
2023-04-25T01:21:12.849Z,47.88
2023-04-25T01:26:05.325Z,48.20
2023-04-25T01:30:59.481Z,47.75
2023-04-25T01:35:52.033Z,47.83
2023-04-25T01:40:48.273Z,47.97
2023-04-25T01:45:43.096Z,48.16
2023-04-25T01:50:38.035Z,48.19
2023-04-25T01:55:31.311Z,47.80
2023-04-25T02:00:29.618Z,48.05
2023-04-25T02:05:24.215Z,48.04
2023-04-25T02:10:18.617Z,48.01
2023-04-25T02:15:29.829Z,47.54
2023-04-25T02:20:28.161Z,47.64
2023-04-25T02:25:23.468Z,47.86
2023-04-25T02:30:17.392Z,47.37
2023-04-25T02:35:10.850Z,47.62
2023-04-25T02:40:04.831Z,47.47
2023-04-25T02:44:57.783Z,47.35
2023-04-25T02:49:50.833Z,47.13
2023-04-25T02:54:43.146Z,47.35
2023-04-25T02:59:37.103Z,47.65
2023-04-25T03:04:31.018Z,47.54
2023-04-25T03:09:25.400Z,47.76
2023-04-25T03:14:18.801Z,47.61
2023-04-25T03:19:12.305Z,47.84
2023-04-25T03:24:06.178Z,47.66
2023-04-25T03:29:00.138Z,47.28
2023-04-25T03:33:54.745Z,46.93
2023-04-25T03:38:53.942Z,47.20
2023-04-25T03:43:48.031Z,47.37
2023-04-25T03:48:42.919Z,46.76
2023-04-25T03:53:39.693Z,46.74
2023-04-25T03:58:55.521Z,46.75
2023-04-25T04:03:51.065Z,46.36
2023-04-25T04:08:45.018Z,46.27
2023-04-25T04:13:38.250Z,46.39
2023-04-25T04:18:32.355Z,46.71
2023-04-25T04:23:25.530Z,46.79
2023-04-25T04:28:19.384Z,46.77
2023-04-25T04:33:24.619Z,46.79
2023-04-25T04:38:24.047Z,46.41
2023-04-25T04:43:20.822Z,46.43
2023-04-25T04:48:35.708Z,46.50
2023-04-25T04:53:47.002Z,46.41
2023-04-25T04:58:46.551Z,46.59
2023-04-25T05:04:04.789Z,46.69
2023-04-25T05:09:20.907Z,46.53
2023-04-25T05:14:48.660Z,46.97
2023-04-25T05:20:17.457Z,46.42
2023-04-25T05:25:40.610Z,46.84
2023-04-25T05:30:40.928Z,46.82
2023-04-25T05:35:42.111Z,46.69
2023-04-25T05:40:35.174Z,46.42
2023-04-25T05:46:00.497Z,46.68
2023-04-25T05:50:58.759Z,46.68
2023-04-25T05:56:27.227Z,46.99
2023-04-25T06:01:20.301Z,47.06
2023-04-25T06:06:17.136Z,47.14
2023-04-25T06:11:10.558Z,47.32
2023-04-25T06:16:04.160Z,47.24
2023-04-25T06:20:57.379Z,47.23
2023-04-25T06:25:51.502Z,46.77
2023-04-25T06:30:45.070Z,47.58
2023-04-25T06:35:43.061Z,47.11
2023-04-25T06:40:39.273Z,47.64
2023-04-25T06:45:34.877Z,45.23
2023-04-25T06:50:28.915Z,44.89
2023-04-25T06:55:21.872Z,45.74
2023-04-25T07:00:30.493Z,45.50
2023-04-25T07:05:24.353Z,45.34
2023-04-25T07:10:17.422Z,47.07
2023-04-25T07:15:13.524Z,47.66
2023-04-25T07:20:11.244Z,45.55
2023-04-25T07:25:05.735Z,47.31
2023-04-25T07:29:59.504Z,45.52
2023-04-25T07:34:52.570Z,46.36
2023-04-25T07:39:47.959Z,46.26
2023-04-25T07:44:41.999Z,46.33
2023-04-25T07:49:40.578Z,44.69
2023-04-25T07:54:33.124Z,46.23
2023-04-25T07:59:39.616Z,44.96
2023-04-25T08:04:32.251Z,45.95
2023-04-25T08:09:29.469Z,45.67
2023-04-25T08:14:24.513Z,44.72
2023-04-25T08:19:17.514Z,44.37
2023-04-25T08:24:12.083Z,44.35
2023-04-25T08:29:07.347Z,44.38
2023-04-25T08:34:01.740Z,43.82
2023-04-25T08:39:05.892Z,43.70
2023-04-25T08:44:06.294Z,44.55
2023-04-25T08:49:04.683Z,45.38
2023-04-25T08:54:06.410Z,45.51
2023-04-25T08:59:04.299Z,45.24
2023-04-25T09:03:59.565Z,45.29
2023-04-25T09:08:53.588Z,45.41
2023-04-25T09:13:48.341Z,45.43
2023-04-25T09:18:54.771Z,45.36
2023-04-25T09:23:50.388Z,45.85
2023-04-25T09:28:44.691Z,45.28
2023-04-25T09:33:37.974Z,45.58
2023-04-25T09:38:34.334Z,45.46
2023-04-25T09:43:36.986Z,45.36
2023-04-25T09:48:31.180Z,43.28
2023-04-25T09:53:29.066Z,42.67
2023-04-25T09:58:43.934Z,42.30
2023-04-25T10:03:39.414Z,44.40
2023-04-25T10:08:57.391Z,41.68
2023-04-25T10:13:53.080Z,41.93
2023-04-25T10:18:47.233Z,41.28
2023-04-25T10:23:43.142Z,44.40
2023-04-25T10:28:57.071Z,45.90
2023-04-25T10:33:50.126Z,46.88
2023-04-25T10:38:48.253Z,44.76
2023-04-25T10:43:48.506Z,46.53
2023-04-25T10:48:51.648Z,46.84
2023-04-25T10:53:51.118Z,45.89
2023-04-25T10:58:52.194Z,47.03
2023-04-25T11:04:04.377Z,47.19
2023-04-25T11:09:04.217Z,47.09
2023-04-25T11:14:05.500Z,46.80
2023-04-25T11:19:07.007Z,46.82
2023-04-25T11:24:04.164Z,46.76
2023-04-25T11:29:07.517Z,46.73
2023-04-25T11:34:08.296Z,47.10
2023-04-25T11:39:08.801Z,46.76
2023-04-25T11:44:08.825Z,46.63
2023-04-25T11:49:06.337Z,47.65
2023-04-25T11:54:08.275Z,48.83
2023-04-25T11:59:10.780Z,49.70
2023-04-25T12:04:24.536Z,49.57
2023-04-25T12:09:25.260Z,49.64
2023-04-25T12:14:30.554Z,50.36
2023-04-25T12:19:25.184Z,50.81
2023-04-25T12:24:29.364Z,50.80
2023-04-25T12:29:29.565Z,50.93
2023-04-25T12:34:28.600Z,50.94
2023-04-25T12:39:25.652Z,51.14
2023-04-25T12:44:21.833Z,51.84
2023-04-25T12:49:19.507Z,51.54
2023-04-25T12:54:17.060Z,52.57
2023-04-25T12:59:10.949Z,52.20
2023-04-25T13:04:07.845Z,52.46
2023-04-25T13:09:05.500Z,52.58
2023-04-25T13:14:00.884Z,52.23
2023-04-25T13:18:58.946Z,52.06
2023-04-25T13:23:51.736Z,52.56
2023-04-25T13:28:46.611Z,53.57
2023-04-25T13:33:39.449Z,53.93
2023-04-25T13:38:33.481Z,53.94
2023-04-25T13:43:27.728Z,54.14
2023-04-25T13:48:22.111Z,54.26
2023-04-25T13:53:15.577Z,54.08
2023-04-25T13:58:11.135Z,52.87
2023-04-25T14:03:09.316Z,52.83
2023-04-25T14:08:03.276Z,52.58
2023-04-25T14:13:01.736Z,51.98
2023-04-25T14:17:54.920Z,51.69
2023-04-25T14:22:48.816Z,51.85
2023-04-25T14:27:42.372Z,53.20
2023-04-25T14:32:36.104Z,53.29
2023-04-25T14:37:30.438Z,52.91
2023-04-25T14:42:23.862Z,53.92
2023-04-25T14:47:18.583Z,53.84
2023-04-25T14:52:12.861Z,53.18
2023-04-25T14:57:06.932Z,53.92
2023-04-25T15:02:01.823Z,53.16
2023-04-25T15:06:55.645Z,53.99
2023-04-25T15:11:49.043Z,53.90
2023-04-25T15:16:42.206Z,53.75
2023-04-25T15:21:36.422Z,53.66
2023-04-25T15:26:29.985Z,54.16
2023-04-25T15:31:23.613Z,54.06
2023-04-25T15:36:18.488Z,54.14
2023-04-25T15:41:11.693Z,55.46
2023-04-25T15:46:06.979Z,55.20
2023-04-25T15:51:00.958Z,55.15
2023-04-25T15:55:53.750Z,55.50
2023-04-25T16:00:49.219Z,54.93
2023-04-25T16:05:41.986Z,57.59
2023-04-25T16:10:35.575Z,57.25
2023-04-25T16:15:29.054Z,57.36
2023-04-25T16:20:23.038Z,57.46
2023-04-25T16:25:16.798Z,58.37
2023-04-25T16:30:11.060Z,57.98
2023-04-25T16:35:03.976Z,59.21
2023-04-25T16:40:01.034Z,59.54
2023-04-25T16:44:57.851Z,58.98
2023-04-25T16:49:51.221Z,59.13
2023-04-25T16:54:44.946Z,58.67
2023-04-25T16:59:38.827Z,56.09
2023-04-25T17:04:32.218Z,58.03
2023-04-25T17:09:27.166Z,55.16
2023-04-25T17:14:21.705Z,55.59
2023-04-25T17:19:14.738Z,55.80
2023-04-25T17:24:09.987Z,56.65
2023-04-25T17:29:03.830Z,56.48
2023-04-25T17:33:58.759Z,56.27
2023-04-25T17:38:52.213Z,55.94
2023-04-25T17:43:47.387Z,57.58
2023-04-25T17:48:40.624Z,57.01
2023-04-25T17:53:33.613Z,57.72
2023-04-25T17:58:28.146Z,58.05
2023-04-25T18:03:22.389Z,57.33
2023-04-25T18:08:16.239Z,54.89
2023-04-25T18:13:10.096Z,58.66
2023-04-25T18:18:14.725Z,58.57
2023-04-25T18:23:12.376Z,57.58
2023-04-25T18:28:06.122Z,57.64
2023-04-25T18:33:00.210Z,60.92
2023-04-25T18:37:53.840Z,56.80
2023-04-25T18:42:47.346Z,56.22
2023-04-25T18:47:41.413Z,56.96
2023-04-25T18:52:34.742Z,58.70
2023-04-25T18:57:28.129Z,58.86
2023-04-25T19:02:23.537Z,56.74
2023-04-25T19:07:16.924Z,56.31
2023-04-25T19:12:10.597Z,53.75
2023-04-25T19:17:05.043Z,55.48
2023-04-25T19:21:59.200Z,54.83
2023-04-25T19:26:53.567Z,54.69
2023-04-25T19:31:47.948Z,51.92
2023-04-25T19:36:43.263Z,50.96
2023-04-25T19:41:39.100Z,50.22
2023-04-25T19:46:32.672Z,50.53
2023-04-25T19:51:25.527Z,50.38
2023-04-25T19:56:18.972Z,49.53
2023-04-25T20:01:13.174Z,51.79
2023-04-25T20:06:06.783Z,52.72
2023-04-25T20:10:59.663Z,53.90
2023-04-25T20:15:53.063Z,55.93
2023-04-25T20:20:50.830Z,56.65
2023-04-25T20:25:48.845Z,56.01
2023-04-25T20:30:45.332Z,55.67
2023-04-25T20:35:38.695Z,57.37
2023-04-25T20:40:32.468Z,57.56
2023-04-25T20:45:29.992Z,55.07
2023-04-25T20:50:22.997Z,55.34
2023-04-25T20:55:16.208Z,54.47
2023-04-25T21:00:26.912Z,54.34
2023-04-25T21:05:22.391Z,54.51
2023-04-25T21:10:16.472Z,54.79
2023-04-25T21:15:13.111Z,54.92
2023-04-25T21:20:11.153Z,54.77
2023-04-25T21:25:07.677Z,55.54
2023-04-25T21:30:01.379Z,54.64
2023-04-25T21:34:56.030Z,54.46
2023-04-25T21:39:48.852Z,55.46
2023-04-25T21:44:43.613Z,54.20
2023-04-25T21:49:35.945Z,54.17
2023-04-25T21:54:29.463Z,53.49
2023-04-25T21:59:25.616Z,53.84
2023-04-25T22:04:19.137Z,53.63
2023-04-25T22:09:13.290Z,53.53
2023-04-25T22:14:07.488Z,53.84
2023-04-25T22:19:01.390Z,53.54
2023-04-25T22:23:55.253Z,53.81
2023-04-25T22:28:48.427Z,53.45
2023-04-25T22:33:42.454Z,53.43
2023-04-25T22:38:35.264Z,53.45
2023-04-25T22:43:30.275Z,53.49
2023-04-25T22:48:23.866Z,53.70
2023-04-25T22:53:17.297Z,53.63
2023-04-25T22:58:10.566Z,53.66
2023-04-25T23:03:04.980Z,53.71
2023-04-25T23:07:59.120Z,53.77
2023-04-25T23:12:53.053Z,53.38
2023-04-25T23:17:46.740Z,53.61
2023-04-25T23:22:40.179Z,53.56
2023-04-25T23:27:33.871Z,53.57
2023-04-25T23:32:27.254Z,53.77
2023-04-25T23:37:20.735Z,53.68
2023-04-25T23:42:13.460Z,53.53
2023-04-25T23:47:07.765Z,53.76
2023-04-25T23:52:01.832Z,53.59
2023-04-25T23:56:59.702Z,53.30
